This is the latest recevied weather packets stored in our database for station/object PI8ANH-13. If no packets are shown the sender has not sent any weather packets the latest 10 day(s).
| Time | Temp. | Humidity | Pressure | Rain* | Wind** | Luminosity | Snow |
|---|---|---|---|---|---|---|---|
| 1777240798 | 7.22° C | 76% | 1025 hPa | - | - | - | - |
| 1777239898 | 7.22° C | 76% | 1025 hPa | - | - | - | - |
| 1777238998 | 7.22° C | 70% | 1025 hPa | - | - | - | - |
| 1777238098 | 7.22° C | 70% | 1025 hPa | - | - | - | - |
| 1777237198 | 6.11° C | 70% | 1025 hPa | - | - | - | - |
| 1777236298 | 6.11° C | 70% | 1025 hPa | - | - | - | - |
| 1777235398 | 6.11° C | 70% | 1024 hPa | - | - | - | - |
| 1777234498 | 6.11° C | 70% | 1024 hPa | - | - | - | - |
| 1777233598 | 7.78° C | 66% | 1024 hPa | - | - | - | - |
| 1777232698 | 7.78° C | 66% | 1024 hPa | - | - | - | - |
| 1777231798 | 10° C | 58% | 1024 hPa | - | - | - | - |
| 1777230898 | 10° C | 58% | 1024 hPa | - | - | - | - |
| 1777229998 | 12.78° C | 47% | 1024 hPa | - | - | - | - |
| 1777229098 | 12.78° C | 47% | 1024 hPa | - | - | - | - |
| 1777228198 | 13.89° C | 44% | 1024 hPa | - | - | - | - |
| 1777227298 | 13.89° C | 44% | 1024 hPa | - | - | - | - |
| 1777226398 | 15° C | 41% | 1024 hPa | - | - | - | - |
| 1777225498 | 15° C | 41% | 1024 hPa | - | - | - | - |
| 1777224598 | 16.11° C | 36% | 1024 hPa | - | - | - | - |
| 1777223698 | 16.11° C | 36% | 1024 hPa | - | - | - | - |
| 1777222798 | 16.11° C | 39% | 1024 hPa | - | - | - | - |
| 1777221898 | 16.11° C | 39% | 1024 hPa | - | - | - | - |
| 1777220998 | 16.11° C | 39% | 1024 hPa | - | - | - | - |
| 1777220098 | 16.11° C | 39% | 1024 hPa | - | - | - | - |
| 1777219198 | 17.22° C | 34% | 1024 hPa | - | - | - | - |
* Rain since midnight (hover to see other rain measurements)
** Current wind speed in m/s (hover to see current wind gust speed)